Terminal Aerodrome Forecast
Issued by NWS

Home | Current Version | Previous Version | Text Only | Print | Product List | Glossary On
Versions: 1 2 3 4 5 6 7 8 9 10 11 12 13 14 15 16 17 18 19 20 21 22 23 24 25 26
642
FTUS43 KLOT 281737
TAFORD
TAF
KORD 281737Z 2818/2924 06010KT 4SM TSRA BKN030CB BKN080
      TEMPO 2820/2823 VRB15G25KT 2SM TSRA BKN040CB
     FM290100 03009KT P6SM SCT030 BKN080
     FM290800 VRB03KT P6SM FEW040 SCT250
     FM291200 06007KT P6SM SCT015 SCT150=

USA.gov is the U.S. government's official web portal to all federal, state and local government web resources and services.